Time;durP1;ratioP1;P1;durP2;ratioP2;P2;SDS_P1;SDS_P2;PMS_P1;PMS_P2;Temp;Humidity;BMP_temperature;BMP_pressure;BME280_temperature;BME280_humidity;BME280_pressure;Samples;Min_cycle;Max_cycle;Signal;HPM_P1;HPM_P2
2022/11/30 00:00:10;;;;;;;60.90;21.13;;;;;;;;;;4987682;28;20057;-95
2022/11/30 00:02:38;;;;;;;70.40;24.88;;;;;;;;;;4983861;28;20304;-95
2022/11/30 00:05:06;;;;;;;60.38;20.92;;;;;;;;;;4989520;28;20049;-95
2022/11/30 00:07:34;;;;;;;62.03;21.15;;;;;;;;;;5000609;28;20580;-95
2022/11/30 00:10:03;;;;;;;67.70;21.38;;;;;;;;;;4987231;28;20065;-95
2022/11/30 00:12:36;;;;;;;69.28;23.20;;;;;;;;;;5005477;28;20133;-95
2022/11/30 00:15:04;;;;;;;61.33;22.83;;;;;;;;;;5005503;28;20050;-95
2022/11/30 00:17:32;;;;;;;59.58;21.60;;;;;;;;;;4998057;28;20061;-90
2022/11/30 00:20:04;;;;;;;68.15;22.15;;;;;;;;;;5010494;28;20546;-90
2022/11/30 00:22:32;;;;;;;63.63;21.25;;;;;;;;;;5012347;28;20070;-94
2022/11/30 00:25:03;;;;;;;68.35;22.98;;;;;;;;;;4966403;28;20073;-95
2022/11/30 00:27:32;;;;;;;60.40;21.90;;;;;;;;;;5018721;28;20112;-95
2022/11/30 00:30:07;;;;;;;66.80;23.13;;;;;;;;;;4987877;28;20043;-95
2022/11/30 00:32:34;;;;;;;67.60;22.60;;;;;;;;;;5001722;28;20052;-95
2022/11/30 00:35:02;;;;;;;67.85;23.38;;;;;;;;;;4987966;28;20063;-95
2022/11/30 00:37:30;;;;;;;71.38;22.58;;;;;;;;;;4989855;28;20080;-94
2022/11/30 00:40:22;;;;;;;62.75;24.38;;;;;;;;;;5006604;28;20077;-95
2022/11/30 00:43:14;;;;;;;63.85;20.95;;;;;;;;;;4988122;28;20600;-94
2022/11/30 00:45:42;;;;;;;62.92;22.17;;;;;;;;;;4989185;28;20065;-95
2022/11/30 00:48:16;;;;;;;67.35;23.05;;;;;;;;;;4999190;28;20050;-95
2022/11/30 00:50:44;;;;;;;66.70;21.27;;;;;;;;;;4979992;28;20054;-89
2022/11/30 00:53:16;;;;;;;82.05;26.23;;;;;;;;;;5013210;28;20056;-90
2022/11/30 00:56:10;;;;;;;63.85;19.88;;;;;;;;;;5020190;28;20585;-95
2022/11/30 00:58:38;;;;;;;65.45;21.75;;;;;;;;;;4972477;28;20077;-94
2022/11/30 01:01:07;;;;;;;67.75;21.98;;;;;;;;;;5003850;28;20064;-94
2022/11/30 01:06:30;;;;;;;70.28;23.08;;;;;;;;;;5033962;28;20046;-93
2022/11/30 01:09:02;;;;;;;67.05;23.15;;;;;;;;;;5004114;28;20554;-94
2022/11/30 01:11:36;;;;;;;68.55;24.30;;;;;;;;;;5002563;28;20132;-94
2022/11/30 01:14:04;;;;;;;74.35;24.52;;;;;;;;;;5001293;28;20046;-93
2022/11/30 01:16:32;;;;;;;70.78;21.42;;;;;;;;;;5001866;28;20049;-89
2022/11/30 01:19:06;;;;;;;67.85;22.20;;;;;;;;;;5014947;28;20060;-90
2022/11/30 01:21:34;;;;;;;70.60;23.38;;;;;;;;;;5014562;28;20049;-89
2022/11/30 01:24:02;;;;;;;63.17;20.83;;;;;;;;;;5006198;28;20046;-89
2022/11/30 01:26:30;;;;;;;72.15;24.55;;;;;;;;;;4998538;28;20112;-89
2022/11/30 01:28:58;;;;;;;74.75;23.42;;;;;;;;;;5001557;28;20060;-89
2022/11/30 01:31:26;;;;;;;70.15;21.02;;;;;;;;;;5013093;28;20069;-89
2022/11/30 01:33:54;;;;;;;69.82;23.25;;;;;;;;;;4986931;28;20392;-90
2022/11/30 01:36:26;;;;;;;65.40;23.13;;;;;;;;;;4995725;28;20111;-90
2022/11/30 01:39:00;;;;;;;73.53;22.90;;;;;;;;;;4996598;28;20105;-89
2022/11/30 01:41:30;;;;;;;77.65;24.17;;;;;;;;;;4998060;28;20050;-89
2022/11/30 01:44:04;;;;;;;70.53;22.00;;;;;;;;;;5013565;28;20054;-89
2022/11/30 01:47:01;;;;;;;67.28;23.50;;;;;;;;;;5014767;28;20747;-90
2022/11/30 01:50:08;;;;;;;73.07;23.60;;;;;;;;;;5012058;28;20045;-89
2022/11/30 01:52:45;;;;;;;74.97;23.88;;;;;;;;;;4997692;28;20131;-89
2022/11/30 01:55:25;;;;;;;75.63;23.80;;;;;;;;;;5008771;28;20093;-90
2022/11/30 01:58:01;;;;;;;67.43;22.63;;;;;;;;;;5000161;28;20058;-89
2022/11/30 02:00:34;;;;;;;70.53;22.95;;;;;;;;;;4991993;28;20058;-90
2022/11/30 02:03:18;;;;;;;76.40;24.40;;;;;;;;;;4996653;28;20058;-90
2022/11/30 02:05:46;;;;;;;78.40;24.67;;;;;;;;;;4994996;28;20053;-89
2022/11/30 02:08:18;;;;;;;70.75;23.52;;;;;;;;;;5030380;28;20050;-89
2022/11/30 02:10:51;;;;;;;75.32;22.55;;;;;;;;;;5013406;28;20054;-89
2022/11/30 02:14:09;;;;;;;81.43;24.38;;;;;;;;;;5014460;28;20049;-89
2022/11/30 02:17:05;;;;;;;83.22;24.35;;;;;;;;;;4994339;28;20046;-89
2022/11/30 02:20:01;;;;;;;73.53;23.30;;;;;;;;;;4996963;28;20052;-90
2022/11/30 02:23:16;;;;;;;79.28;23.02;;;;;;;;;;4979651;28;20145;-90
2022/11/30 02:26:11;;;;;;;73.40;23.88;;;;;;;;;;4950172;29;20214;-89
2022/11/30 02:29:07;;;;;;;62.55;21.25;;;;;;;;;;4954249;29;20093;-89
2022/11/30 02:32:07;;;;;;;63.25;21.73;;;;;;;;;;4951958;28;20059;-89
2022/11/30 02:34:37;;;;;;;67.63;23.10;;;;;;;;;;4936871;29;20387;-90
2022/11/30 02:37:06;;;;;;;72.53;24.58;;;;;;;;;;4938150;29;20062;-90
2022/11/30 02:39:40;;;;;;;68.85;23.90;;;;;;;;;;4954332;29;20051;-90
2022/11/30 02:42:12;;;;;;;76.78;23.45;;;;;;;;;;4950705;28;20447;-89
2022/11/30 02:44:50;;;;;;;83.63;25.92;;;;;;;;;;4952917;29;20055;-90
2022/11/30 02:47:47;;;;;;;80.85;23.25;;;;;;;;;;4952863;29;20057;-90
2022/11/30 02:50:28;;;;;;;66.38;20.65;;;;;;;;;;4938004;29;20043;-89
2022/11/30 02:52:56;;;;;;;84.75;25.55;;;;;;;;;;4953326;29;20118;-90
2022/11/30 02:55:50;;;;;;;83.13;24.30;;;;;;;;;;4953942;29;20062;-89
2022/11/30 02:58:42;;;;;;;71.03;22.48;;;;;;;;;;4952074;28;20074;-90
2022/11/30 03:01:14;;;;;;;74.47;23.13;;;;;;;;;;4958170;28;20090;-89
2022/11/30 03:03:46;;;;;;;73.88;23.63;;;;;;;;;;4995754;28;20054;-90
2022/11/30 03:06:14;;;;;;;81.22;24.30;;;;;;;;;;5013619;28;20042;-89
2022/11/30 03:08:46;;;;;;;83.70;23.40;;;;;;;;;;5013604;28;20061;-89
2022/11/30 03:11:18;;;;;;;87.00;23.73;;;;;;;;;;5027873;28;20141;-89
2022/11/30 03:13:50;;;;;;;73.68;22.45;;;;;;;;;;4997278;28;20439;-89
2022/11/30 03:16:18;;;;;;;81.95;25.00;;;;;;;;;;4975239;28;20053;-89
2022/11/30 03:18:50;;;;;;;78.20;24.13;;;;;;;;;;5012926;28;20119;-90
2022/11/30 03:21:22;;;;;;;73.72;23.73;;;;;;;;;;5015178;28;20085;-89
2022/11/30 03:26:42;;;;;;;72.22;23.60;;;;;;;;;;5004727;28;20411;-89
2022/11/30 03:29:14;;;;;;;78.32;25.10;;;;;;;;;;5011030;28;20053;-89
2022/11/30 03:31:42;;;;;;;87.50;25.40;;;;;;;;;;5005748;28;20057;-88
2022/11/30 03:34:10;;;;;;;80.30;24.40;;;;;;;;;;5009706;28;20411;-89
2022/11/30 03:36:38;;;;;;;81.60;25.50;;;;;;;;;;5010352;28;20060;-89
2022/11/30 03:39:06;;;;;;;83.28;25.02;;;;;;;;;;5010056;28;20049;-89
2022/11/30 03:41:58;;;;;;;85.25;25.95;;;;;;;;;;4994490;28;20041;-89
2022/11/30 03:44:30;;;;;;;81.88;21.58;;;;;;;;;;4999254;28;20050;-89
2022/11/30 03:46:58;;;;;;;83.38;23.33;;;;;;;;;;4991063;28;20523;-89
2022/11/30 03:49:26;;;;;;;89.45;27.73;;;;;;;;;;4990984;28;20049;-89
2022/11/30 03:51:58;;;;;;;83.93;23.52;;;;;;;;;;5009193;28;20058;-89
2022/11/30 03:54:26;;;;;;;85.85;25.33;;;;;;;;;;5023514;28;20085;-89
2022/11/30 03:57:18;;;;;;;81.97;23.90;;;;;;;;;;4992821;28;20045;-89
2022/11/30 03:59:56;;;;;;;84.07;25.05;;;;;;;;;;5009777;28;20046;-88
2022/11/30 04:02:24;;;;;;;92.47;26.27;;;;;;;;;;5007252;28;20053;-89
2022/11/30 04:04:52;;;;;;;77.68;24.00;;;;;;;;;;5023597;28;20046;-88
2022/11/30 04:07:20;;;;;;;92.28;24.48;;;;;;;;;;4990260;28;20073;-88
2022/11/30 04:09:48;;;;;;;80.93;24.60;;;;;;;;;;5017843;28;20038;-88
2022/11/30 04:12:40;;;;;;;76.18;23.15;;;;;;;;;;5006321;28;20053;-88
2022/11/30 04:15:32;;;;;;;86.70;24.52;;;;;;;;;;5010590;28;20407;-89
2022/11/30 04:18:00;;;;;;;88.85;24.50;;;;;;;;;;5010529;28;20050;-89
2022/11/30 04:20:28;;;;;;;97.10;25.48;;;;;;;;;;4992042;28;20046;-89
2022/11/30 04:22:56;;;;;;;76.18;23.00;;;;;;;;;;5010904;28;20503;-89
2022/11/30 04:25:50;;;;;;;74.88;22.92;;;;;;;;;;5008401;28;20041;-89
2022/11/30 04:28:18;;;;;;;88.63;25.33;;;;;;;;;;5013751;28;20145;-89
2022/11/30 04:30:51;;;;;;;84.45;23.23;;;;;;;;;;4996266;28;20061;-89
2022/11/30 04:33:23;;;;;;;91.53;26.30;;;;;;;;;;5014182;28;20050;-89
2022/11/30 04:35:54;;;;;;;88.28;24.63;;;;;;;;;;4996801;28;20057;-89
2022/11/30 04:38:23;;;;;;;88.30;23.67;;;;;;;;;;5027831;28;20068;-88
2022/11/30 04:40:50;;;;;;;97.03;25.25;;;;;;;;;;4996477;28;20468;-88
2022/11/30 04:43:18;;;;;;;81.22;22.88;;;;;;;;;;5014863;28;20053;-89
2022/11/30 04:45:46;;;;;;;89.30;24.15;;;;;;;;;;5009027;28;20053;-88
2022/11/30 04:48:20;;;;;;;97.43;25.92;;;;;;;;;;5014313;28;20050;-89
2022/11/30 04:51:12;;;;;;;87.78;25.20;;;;;;;;;;5013719;28;20054;-89
2022/11/30 04:53:40;;;;;;;89.68;25.10;;;;;;;;;;4994617;28;20048;-89
2022/11/30 04:56:10;;;;;;;90.30;24.52;;;;;;;;;;5012477;28;20092;-89
2022/11/30 04:59:02;;;;;;;85.38;23.83;;;;;;;;;;5013867;28;20414;-89
2022/11/30 05:01:30;;;;;;;90.75;24.48;;;;;;;;;;5010936;28;20062;-89
2022/11/30 05:03:58;;;;;;;85.80;23.23;;;;;;;;;;4991939;28;20128;-89
2022/11/30 05:12:36;;;;;;;95.35;25.08;;;;;;;;;;4993245;28;20069;-89
2022/11/30 05:15:04;;;;;;;92.85;23.48;;;;;;;;;;5011207;28;20046;-89
2022/11/30 05:17:38;;;;;;;91.68;23.42;;;;;;;;;;5012046;28;20129;-89
2022/11/30 05:20:12;;;;;;;87.30;23.33;;;;;;;;;;5025279;28;20112;-90
2022/11/30 05:22:40;;;;;;;87.82;24.05;;;;;;;;;;5001782;28;20046;-90
2022/11/30 05:25:08;;;;;;;82.47;22.75;;;;;;;;;;5011950;28;20069;-90
2022/11/30 05:27:36;;;;;;;87.60;23.63;;;;;;;;;;4992578;28;20116;-89
2022/11/30 05:30:05;;;;;;;88.38;23.38;;;;;;;;;;4997278;28;20053;-88
2022/11/30 05:32:34;;;;;;;94.03;23.80;;;;;;;;;;5008412;28;20042;-89
2022/11/30 05:35:02;;;;;;;81.60;21.70;;;;;;;;;;4995055;28;20104;-89
2022/11/30 05:37:30;;;;;;;80.07;21.70;;;;;;;;;;5024731;28;20100;-90
2022/11/30 05:39:58;;;;;;;90.85;24.02;;;;;;;;;;4995459;28;20054;-90
2022/11/30 05:42:27;;;;;;;88.70;23.35;;;;;;;;;;4994677;28;20046;-90
2022/11/30 05:45:18;;;;;;;92.03;22.95;;;;;;;;;;5011385;28;20069;-90
2022/11/30 05:47:50;;;;;;;82.57;21.35;;;;;;;;;;4994646;28;20064;-90
2022/11/30 05:50:44;;;;;;;65.55;21.60;;;;;;;;;;4993301;28;20046;-90
2022/11/30 05:53:12;;;;;;;93.32;23.27;;;;;;;;;;5007573;28;20470;-91
2022/11/30 05:55:41;;;;;;;85.25;21.92;;;;;;;;;;5002317;28;20048;-92
2022/11/30 05:58:34;;;;;;;85.50;22.77;;;;;;;;;;5012069;28;20042;-92
2022/11/30 06:01:06;;;;;;;92.25;23.85;;;;;;;;;;4994650;28;20050;-90
2022/11/30 06:03:58;;;;;;;75.95;22.20;;;;;;;;;;5003001;28;20057;-91
2022/11/30 06:06:36;;;;;;;81.22;23.02;;;;;;;;;;4998094;28;20046;-92
2022/11/30 06:09:04;;;;;;;72.72;21.00;;;;;;;;;;4991661;28;20057;-89
2022/11/30 06:11:32;;;;;;;84.10;23.70;;;;;;;;;;4995523;28;20418;-89
2022/11/30 06:14:24;;;;;;;95.68;24.75;;;;;;;;;;4990979;28;20038;-88
2022/11/30 06:16:52;;;;;;;86.88;22.38;;;;;;;;;;4991060;28;20455;-89
2022/11/30 06:19:20;;;;;;;78.95;22.17;;;;;;;;;;5007369;28;20056;-89
2022/11/30 06:21:48;;;;;;;91.40;23.83;;;;;;;;;;5007599;28;20053;-89
2022/11/30 06:24:16;;;;;;;72.20;21.05;;;;;;;;;;5011676;28;20046;-88
2022/11/30 06:26:44;;;;;;;81.80;21.35;;;;;;;;;;4991458;28;20048;-87
2022/11/30 06:29:12;;;;;;;78.68;21.50;;;;;;;;;;4992235;28;20052;-89
2022/11/30 06:32:10;;;;;;;78.13;20.77;;;;;;;;;;4999266;28;20046;-87
2022/11/30 06:34:38;;;;;;;74.88;23.23;;;;;;;;;;4995020;28;20462;-90
2022/11/30 06:37:06;;;;;;;86.70;22.55;;;;;;;;;;5010815;28;20060;-90
2022/11/30 06:39:39;;;;;;;80.00;23.63;;;;;;;;;;5008556;28;20037;-87
2022/11/30 06:42:29;;;;;;;72.90;20.33;;;;;;;;;;5010287;28;20050;-88
2022/11/30 06:45:02;;;;;;;74.32;21.60;;;;;;;;;;4978376;28;20142;-88
2022/11/30 06:47:30;;;;;;;72.20;21.23;;;;;;;;;;5010284;28;20487;-88
2022/11/30 06:50:22;;;;;;;81.88;23.30;;;;;;;;;;5020919;28;20045;-88
2022/11/30 06:53:20;;;;;;;81.90;21.35;;;;;;;;;;5009495;28;20565;-88
2022/11/30 06:55:48;;;;;;;75.80;21.15;;;;;;;;;;4990674;28;20145;-88
2022/11/30 06:58:16;;;;;;;68.15;20.67;;;;;;;;;;5009049;28;20042;-88
2022/11/30 07:00:48;;;;;;;83.13;23.30;;;;;;;;;;4991847;28;20050;-88
2022/11/30 07:03:20;;;;;;;69.93;21.23;;;;;;;;;;5007855;28;20057;-87
2022/11/30 07:05:48;;;;;;;73.28;20.73;;;;;;;;;;4989900;28;20156;-88
2022/11/30 07:08:16;;;;;;;74.50;22.55;;;;;;;;;;5004766;28;20050;-88
2022/11/30 07:10:50;;;;;;;82.40;19.90;;;;;;;;;;4991534;28;20048;-87
2022/11/30 07:13:18;;;;;;;73.22;22.58;;;;;;;;;;4992076;28;20407;-88
2022/11/30 07:15:52;;;;;;;71.95;21.40;;;;;;;;;;5006760;28;20042;-87
2022/11/30 07:18:20;;;;;;;73.88;22.92;;;;;;;;;;5008497;28;20182;-88
2022/11/30 07:20:48;;;;;;;65.90;20.60;;;;;;;;;;5008338;28;20057;-88
2022/11/30 07:26:05;;;;;;;76.47;22.42;;;;;;;;;;5005007;28;20050;-88
2022/11/30 07:28:39;;;;;;;79.25;21.27;;;;;;;;;;4970792;28;20048;-88
2022/11/30 07:31:24;;;;;;;79.50;22.23;;;;;;;;;;4983772;28;20538;-88
2022/11/30 07:33:52;;;;;;;73.88;20.60;;;;;;;;;;4974093;28;20058;-88
2022/11/30 07:36:21;;;;;;;71.10;20.38;;;;;;;;;;4988892;28;20044;-88
2022/11/30 07:38:50;;;;;;;69.68;20.60;;;;;;;;;;4985386;28;20046;-88
2022/11/30 07:41:22;;;;;;;62.33;21.92;;;;;;;;;;4989063;28;20478;-88
2022/11/30 07:43:56;;;;;;;69.75;20.23;;;;;;;;;;5005830;28;20732;-88
2022/11/30 07:46:24;;;;;;;68.57;19.92;;;;;;;;;;4989152;28;20049;-89
2022/11/30 07:48:56;;;;;;;63.25;20.02;;;;;;;;;;5019103;28;20050;-89
2022/11/30 07:51:24;;;;;;;73.97;21.02;;;;;;;;;;5006852;28;20050;-89
2022/11/30 07:53:55;;;;;;;59.85;20.00;;;;;;;;;;5003292;28;20076;-89
2022/11/30 07:56:24;;;;;;;64.53;20.10;;;;;;;;;;4985253;28;20046;-89
2022/11/30 07:58:59;;;;;;;65.13;19.50;;;;;;;;;;4986622;28;20054;-89
2022/11/30 08:01:52;;;;;;;59.10;21.45;;;;;;;;;;4982398;28;20054;-89
2022/11/30 08:04:20;;;;;;;58.20;19.98;;;;;;;;;;4983988;28;20058;-89
2022/11/30 08:06:53;;;;;;;71.65;20.08;;;;;;;;;;5001865;28;20054;-89
2022/11/30 08:09:47;;;;;;;61.15;19.02;;;;;;;;;;5017365;28;20053;-89
2022/11/30 08:12:16;;;;;;;69.53;21.52;;;;;;;;;;5000845;28;20149;-89
2022/11/30 08:14:44;;;;;;;56.03;19.17;;;;;;;;;;4984171;28;20137;-89
2022/11/30 08:17:36;;;;;;;56.95;19.42;;;;;;;;;;5000909;28;20049;-89
2022/11/30 08:20:06;;;;;;;69.97;22.48;;;;;;;;;;4988467;28;20049;-89
2022/11/30 08:22:34;;;;;;;58.67;19.42;;;;;;;;;;5020264;28;20042;-89
2022/11/30 08:25:02;;;;;;;60.30;21.15;;;;;;;;;;4972494;28;20058;-88
2022/11/30 08:27:30;;;;;;;54.00;18.70;;;;;;;;;;4987356;28;20048;-89
2022/11/30 08:30:22;;;;;;;55.35;20.70;;;;;;;;;;5004066;28;20057;-88
2022/11/30 08:32:58;;;;;;;65.53;19.73;;;;;;;;;;5003259;28;20046;-88
2022/11/30 08:35:50;;;;;;;54.05;19.98;;;;;;;;;;5004366;28;20044;-89
2022/11/30 08:38:18;;;;;;;53.25;18.30;;;;;;;;;;4988728;28;20100;-88
2022/11/30 08:40:46;;;;;;;53.08;19.10;;;;;;;;;;5006074;28;20412;-88
2022/11/30 08:43:14;;;;;;;56.50;19.23;;;;;;;;;;5004349;28;20052;-88
2022/11/30 08:45:42;;;;;;;56.53;19.63;;;;;;;;;;4981127;28;20089;-88
2022/11/30 08:48:10;;;;;;;58.20;19.08;;;;;;;;;;5002765;28;20050;-88
2022/11/30 08:50:38;;;;;;;51.72;18.55;;;;;;;;;;5004795;28;20045;-88
2022/11/30 08:53:10;;;;;;;47.70;17.00;;;;;;;;;;5007404;28;20046;-88
2022/11/30 08:55:38;;;;;;;52.17;18.38;;;;;;;;;;5008131;28;20038;-88
2022/11/30 08:58:06;;;;;;;58.63;19.40;;;;;;;;;;4987554;28;20415;-88
2022/11/30 09:00:34;;;;;;;53.25;18.65;;;;;;;;;;5005819;28;20050;-88
2022/11/30 09:03:06;;;;;;;48.85;19.27;;;;;;;;;;5003537;28;20052;-88
2022/11/30 09:05:34;;;;;;;39.38;15.55;;;;;;;;;;4988370;28;20504;-88
2022/11/30 09:08:02;;;;;;;46.38;16.35;;;;;;;;;;4990896;28;20053;-88
2022/11/30 09:10:30;;;;;;;49.63;18.00;;;;;;;;;;5006661;28;20065;-87
2022/11/30 09:13:22;;;;;;;44.03;16.58;;;;;;;;;;4991890;28;20321;-89
2022/11/30 09:15:54;;;;;;;56.28;17.75;;;;;;;;;;4993958;28;20064;-88
2022/11/30 09:18:22;;;;;;;48.97;17.48;;;;;;;;;;4991790;28;20083;-88
2022/11/30 09:21:01;;;;;;;48.05;17.48;;;;;;;;;;5006265;28;20106;-88
2022/11/30 09:23:30;;;;;;;45.38;15.73;;;;;;;;;;5023544;28;20042;-88
2022/11/30 09:25:59;;;;;;;43.55;15.77;;;;;;;;;;5023850;28;20038;-88
2022/11/30 09:28:33;;;;;;;53.67;18.40;;;;;;;;;;4995006;28;20048;-88
2022/11/30 09:31:11;;;;;;;50.92;17.45;;;;;;;;;;5002421;28;20046;-88
2022/11/30 09:33:40;;;;;;;47.55;18.55;;;;;;;;;;4991840;28;20042;-88
2022/11/30 09:36:10;;;;;;;53.97;19.38;;;;;;;;;;4996231;28;20080;-88
2022/11/30 09:38:38;;;;;;;52.10;18.08;;;;;;;;;;4992597;28;20073;-88
2022/11/30 09:41:24;;;;;;;45.08;16.35;;;;;;;;;;5003072;28;20073;-88
2022/11/30 09:44:20;;;;;;;44.53;15.25;;;;;;;;;;5010251;28;20092;-88
2022/11/30 09:47:31;;;;;;;46.22;16.75;;;;;;;;;;5021691;28;20108;-88
2022/11/30 09:50:12;;;;;;;44.72;16.00;;;;;;;;;;5008825;28;20054;-88
2022/11/30 09:52:45;;;;;;;42.88;16.67;;;;;;;;;;5007586;28;20046;-88
2022/11/30 09:55:41;;;;;;;42.13;16.85;;;;;;;;;;5022722;28;20096;-88
2022/11/30 09:58:35;;;;;;;38.22;14.73;;;;;;;;;;5007684;28;20038;-88
2022/11/30 10:01:03;;;;;;;44.38;16.25;;;;;;;;;;5009700;28;20073;-88
2022/11/30 10:03:36;;;;;;;47.22;17.38;;;;;;;;;;4991809;28;20415;-88
2022/11/30 10:06:45;;;;;;;43.28;16.25;;;;;;;;;;4994674;28;20046;-88
2022/11/30 10:13:11;;;;;;;38.13;15.13;;;;;;;;;;5024755;28;20057;-88
2022/11/30 10:15:56;;;;;;;43.80;16.48;;;;;;;;;;4986079;28;20126;-88
2022/11/30 10:18:39;;;;;;;42.00;15.35;;;;;;;;;;5003411;28;20052;-88
2022/11/30 10:21:21;;;;;;;37.25;14.32;;;;;;;;;;4988647;28;20056;-88
2022/11/30 10:24:23;;;;;;;39.25;15.50;;;;;;;;;;4991093;28;20050;-88
2022/11/30 10:26:57;;;;;;;34.67;14.15;;;;;;;;;;5001913;28;20052;-88
2022/11/30 10:29:34;;;;;;;48.47;16.45;;;;;;;;;;4996294;28;20052;-88
2022/11/30 10:32:16;;;;;;;46.88;16.10;;;;;;;;;;4971449;28;20479;-88
2022/11/30 10:35:14;;;;;;;42.60;14.98;;;;;;;;;;5008510;28;20046;-88
2022/11/30 10:37:43;;;;;;;38.70;15.68;;;;;;;;;;4991185;28;20075;-88
2022/11/30 10:40:37;;;;;;;40.08;15.98;;;;;;;;;;5003866;28;20470;-88
2022/11/30 10:43:16;;;;;;;43.47;15.38;;;;;;;;;;5008370;28;20066;-88
2022/11/30 10:46:18;;;;;;;39.67;15.20;;;;;;;;;;4977710;28;20041;-88
2022/11/30 10:49:01;;;;;;;36.00;15.95;;;;;;;;;;5007163;28;20053;-88
2022/11/30 10:51:58;;;;;;;41.75;15.80;;;;;;;;;;5005036;28;20631;-88
2022/11/30 10:54:54;;;;;;;46.58;16.50;;;;;;;;;;4991564;28;20049;-89
2022/11/30 10:57:31;;;;;;;46.67;16.27;;;;;;;;;;5009703;28;20037;-89
2022/11/30 11:00:01;;;;;;;35.53;13.77;;;;;;;;;;5002417;28;20484;-88
2022/11/30 11:02:42;;;;;;;39.72;15.50;;;;;;;;;;5000599;28;20049;-88
2022/11/30 11:05:21;;;;;;;34.17;16.00;;;;;;;;;;5003540;28;20049;-88
2022/11/30 11:08:00;;;;;;;39.17;15.57;;;;;;;;;;4990328;28;20042;-88
2022/11/30 11:10:58;;;;;;;40.53;15.23;;;;;;;;;;4990489;28;20056;-88
2022/11/30 11:13:40;;;;;;;36.25;15.32;;;;;;;;;;4987301;28;20100;-88
2022/11/30 11:16:10;;;;;;;40.95;15.85;;;;;;;;;;5006822;28;20041;-88
2022/11/30 11:18:55;;;;;;;35.08;14.73;;;;;;;;;;5002699;28;20061;-88
2022/11/30 11:21:28;;;;;;;36.38;15.32;;;;;;;;;;4974249;28;20053;-88
2022/11/30 11:23:56;;;;;;;41.13;14.77;;;;;;;;;;5004987;28;20050;-89
2022/11/30 11:26:26;;;;;;;38.92;15.52;;;;;;;;;;5002196;28;20414;-87
2022/11/30 11:28:58;;;;;;;34.80;13.98;;;;;;;;;;4998133;28;20064;-88
2022/11/30 11:31:45;;;;;;;35.08;14.60;;;;;;;;;;4986165;28;20151;-88
2022/11/30 11:34:35;;;;;;;38.00;14.50;;;;;;;;;;5001134;28;20053;-88
2022/11/30 11:37:32;;;;;;;33.47;13.82;;;;;;;;;;4986490;28;20188;-88
2022/11/30 11:40:06;;;;;;;41.35;15.85;;;;;;;;;;5000113;28;20050;-88
2022/11/30 11:42:40;;;;;;;36.63;14.38;;;;;;;;;;5001691;28;20050;-88
2022/11/30 11:45:15;;;;;;;33.70;14.02;;;;;;;;;;5001416;28;20069;-88
2022/11/30 11:47:44;;;;;;;38.53;14.77;;;;;;;;;;4984708;28;20071;-88
2022/11/30 11:50:11;;;;;;;36.30;14.60;;;;;;;;;;4986528;28;20424;-88
2022/11/30 11:52:40;;;;;;;32.72;13.82;;;;;;;;;;5003102;28;20113;-88
2022/11/30 11:55:15;;;;;;;36.58;14.65;;;;;;;;;;5004436;28;20096;-88
2022/11/30 11:57:55;;;;;;;35.47;14.52;;;;;;;;;;4956298;28;20459;-87
2022/11/30 12:00:24;;;;;;;38.17;15.00;;;;;;;;;;5003447;28;20503;-87
2022/11/30 12:03:13;;;;;;;30.75;13.52;;;;;;;;;;4970691;28;20137;-87
2022/11/30 12:05:52;;;;;;;37.22;14.00;;;;;;;;;;4984868;28;20475;-88
2022/11/30 12:08:42;;;;;;;36.85;13.48;;;;;;;;;;5000797;28;20041;-88
2022/11/30 12:11:17;;;;;;;34.50;13.55;;;;;;;;;;5003895;28;20940;-88
2022/11/30 12:13:50;;;;;;;35.30;13.68;;;;;;;;;;5003085;28;20082;-88
2022/11/30 12:16:28;;;;;;;39.30;15.48;;;;;;;;;;5000077;28;20054;-88
2022/11/30 12:19:05;;;;;;;31.92;14.02;;;;;;;;;;5000172;28;20065;-88
2022/11/30 12:21:53;;;;;;;36.38;14.63;;;;;;;;;;4999231;28;20060;-88
2022/11/30 12:24:20;;;;;;;37.35;12.75;;;;;;;;;;5000946;28;20057;-88
2022/11/30 12:27:16;;;;;;;39.95;15.38;;;;;;;;;;5005151;28;20057;-87
2022/11/30 12:29:58;;;;;;;38.70;16.40;;;;;;;;;;5003846;28;20046;-88
2022/11/30 12:33:01;;;;;;;35.03;15.27;;;;;;;;;;4998280;28;20069;-88
2022/11/30 12:35:40;;;;;;;37.35;13.82;;;;;;;;;;4987846;28;20050;-88
2022/11/30 12:38:35;;;;;;;34.53;14.70;;;;;;;;;;4999591;28;20111;-87
2022/11/30 12:41:26;;;;;;;38.92;14.70;;;;;;;;;;5002943;28;20046;-87
2022/11/30 12:44:39;;;;;;;42.78;15.77;;;;;;;;;;5004606;28;20859;-88
2022/11/30 12:47:45;;;;;;;39.08;15.02;;;;;;;;;;4961349;28;20141;-87
2022/11/30 12:50:29;;;;;;;45.47;16.77;;;;;;;;;;4890708;29;20056;-88
2022/11/30 12:53:22;;;;;;;37.20;12.95;;;;;;;;;;4888575;29;20052;-88
2022/11/30 12:56:09;;;;;;;46.75;16.42;;;;;;;;;;4905933;29;20139;-87
2022/11/30 12:58:57;;;;;;;38.50;16.23;;;;;;;;;;4907816;29;20125;-88
2022/11/30 13:01:30;;;;;;;40.40;14.70;;;;;;;;;;4901181;29;22164;-88
2022/11/30 13:04:07;;;;;;;41.40;15.93;;;;;;;;;;4905429;29;20501;-87
2022/11/30 13:06:59;;;;;;;46.85;16.63;;;;;;;;;;4909887;29;20543;-88
2022/11/30 13:09:37;;;;;;;44.97;16.10;;;;;;;;;;4905075;29;20455;-87
2022/11/30 13:12:16;;;;;;;49.00;17.77;;;;;;;;;;4910940;29;20593;-87
2022/11/30 13:14:50;;;;;;;51.95;17.17;;;;;;;;;;4910220;29;20155;-87
2022/11/30 13:17:23;;;;;;;42.72;15.55;;;;;;;;;;4890962;29;20044;-88
2022/11/30 13:20:18;;;;;;;43.97;16.73;;;;;;;;;;4907838;29;20071;-88
2022/11/30 13:23:07;;;;;;;55.83;16.67;;;;;;;;;;4908104;29;20076;-87
2022/11/30 13:25:36;;;;;;;48.55;16.98;;;;;;;;;;4951958;28;20133;-87
2022/11/30 13:28:40;;;;;;;49.25;16.58;;;;;;;;;;4988459;28;20069;-86
2022/11/30 13:31:23;;;;;;;54.25;19.25;;;;;;;;;;5005019;28;20136;-87
2022/11/30 13:33:51;;;;;;;49.72;17.85;;;;;;;;;;5005201;28;20049;-87
2022/11/30 13:36:44;;;;;;;55.25;17.48;;;;;;;;;;5003187;28;20096;-86
2022/11/30 13:39:26;;;;;;;60.63;19.85;;;;;;;;;;4986976;28;20050;-86
2022/11/30 13:42:00;;;;;;;57.13;18.67;;;;;;;;;;4985242;28;20109;-86
2022/11/30 13:44:36;;;;;;;51.75;18.05;;;;;;;;;;5003335;28;20948;-87
2022/11/30 13:47:15;;;;;;;57.80;18.70;;;;;;;;;;4987568;28;20089;-87
2022/11/30 13:49:54;;;;;;;52.67;17.48;;;;;;;;;;5007597;28;20531;-87
2022/11/30 13:52:57;;;;;;;63.58;18.23;;;;;;;;;;5005530;28;20058;-88
2022/11/30 13:55:35;;;;;;;55.83;17.88;;;;;;;;;;4984866;28;20054;-89
2022/11/30 13:58:07;;;;;;;56.53;19.73;;;;;;;;;;5025392;28;20396;-88
2022/11/30 14:00:33;;;;;;;58.90;17.75;;;;;;;;;;5006318;28;20057;-85
2022/11/30 14:03:19;;;;;;;61.78;20.10;;;;;;;;;;5007948;28;20060;-85
2022/11/30 14:05:55;;;;;;;53.28;17.55;;;;;;;;;;5005761;28;20208;-86
2022/11/30 14:08:22;;;;;;;64.25;18.92;;;;;;;;;;5009027;28;20054;-85
2022/11/30 14:10:50;;;;;;;66.15;20.67;;;;;;;;;;4990916;28;20057;-86
2022/11/30 14:13:21;;;;;;;66.15;20.38;;;;;;;;;;4973074;28;20112;-86
2022/11/30 14:15:56;;;;;;;59.17;20.05;;;;;;;;;;4977110;28;20063;-87
2022/11/30 14:18:41;;;;;;;59.15;19.35;;;;;;;;;;5008476;28;20568;-87
2022/11/30 14:21:21;;;;;;;63.65;20.23;;;;;;;;;;5006055;28;20569;-86
2022/11/30 14:24:15;;;;;;;72.57;21.67;;;;;;;;;;5007611;28;20085;-86
2022/11/30 14:27:06;;;;;;;67.78;20.33;;;;;;;;;;4990847;28;20531;-86
2022/11/30 14:29:35;;;;;;;64.45;21.45;;;;;;;;;;5007831;28;20124;-88
2022/11/30 14:32:10;;;;;;;61.35;19.63;;;;;;;;;;4990031;28;20114;-88
2022/11/30 14:34:44;;;;;;;68.28;22.17;;;;;;;;;;5010284;28;20054;-85
2022/11/30 14:37:20;;;;;;;62.08;20.02;;;;;;;;;;5006162;28;20061;-85
2022/11/30 14:39:58;;;;;;;65.50;19.63;;;;;;;;;;4967928;28;20176;-86
2022/11/30 14:42:28;;;;;;;57.63;18.40;;;;;;;;;;4988413;28;20576;-85
2022/11/30 14:44:56;;;;;;;67.60;21.00;;;;;;;;;;5005700;28;20694;-86
2022/11/30 14:47:31;;;;;;;69.80;20.33;;;;;;;;;;4989220;28;20091;-85
2022/11/30 14:50:25;;;;;;;66.30;18.73;;;;;;;;;;5003005;28;20603;-86
2022/11/30 14:53:25;;;;;;;70.18;20.75;;;;;;;;;;5003067;28;20606;-85
2022/11/30 14:56:25;;;;;;;74.80;21.98;;;;;;;;;;5004268;28;20064;-85
2022/11/30 14:59:24;;;;;;;64.95;21.65;;;;;;;;;;5007822;28;20054;-85
2022/11/30 15:02:01;;;;;;;75.85;20.85;;;;;;;;;;4988358;28;20213;-85
2022/11/30 15:04:28;;;;;;;64.90;18.63;;;;;;;;;;5006648;28;20708;-85
2022/11/30 15:07:02;;;;;;;67.38;20.88;;;;;;;;;;5005931;28;20046;-85
2022/11/30 15:09:31;;;;;;;70.57;22.23;;;;;;;;;;5003432;28;20582;-85
2022/11/30 15:12:04;;;;;;;76.18;22.17;;;;;;;;;;5005059;28;20651;-85
2022/11/30 15:15:10;;;;;;;74.20;20.85;;;;;;;;;;5006824;28;20046;-85
2022/11/30 15:17:51;;;;;;;68.40;21.13;;;;;;;;;;5006372;28;20050;-85
2022/11/30 15:20:52;;;;;;;68.38;21.38;;;;;;;;;;5003768;28;20060;-85
2022/11/30 15:23:46;;;;;;;74.28;20.90;;;;;;;;;;5005280;28;20132;-85
2022/11/30 15:26:18;;;;;;;77.97;22.15;;;;;;;;;;5005043;28;20192;-86
2022/11/30 15:29:15;;;;;;;75.00;21.95;;;;;;;;;;4988990;28;20080;-86
2022/11/30 15:31:46;;;;;;;67.47;21.67;;;;;;;;;;4992827;28;20054;-86